createdAt,value
2022-12-14T00:00:44.201Z,0.20
2022-12-14T00:01:49.062Z,0.20
2022-12-14T00:02:52.641Z,0.30
2022-12-14T00:03:56.478Z,0.40
2022-12-14T00:04:59.360Z,0.30
2022-12-14T00:06:09.662Z,0.30
2022-12-14T00:07:12.543Z,0.30
2022-12-14T00:08:15.949Z,0.20
2022-12-14T00:09:18.912Z,0.20
2022-12-14T00:10:20.933Z,0.20
2022-12-14T00:11:24.601Z,0.10
2022-12-14T00:12:26.553Z,0.20
2022-12-14T00:13:29.533Z,0.20
2022-12-14T00:14:31.483Z,0.30
2022-12-14T00:15:34.562Z,0.30
2022-12-14T00:16:36.706Z,0.30
2022-12-14T00:17:39.745Z,0.30
2022-12-14T00:18:42.291Z,0.30
2022-12-14T00:19:48.925Z,0.30
2022-12-14T00:20:51.026Z,0.50
2022-12-14T00:21:53.952Z,0.60
2022-12-14T00:22:56.505Z,0.50
2022-12-14T00:24:00.747Z,0.40
2022-12-14T00:25:02.695Z,0.50
2022-12-14T00:26:10.489Z,0.40
2022-12-14T00:27:12.486Z,0.40
2022-12-14T00:28:15.433Z,0.40
2022-12-14T00:29:17.976Z,0.30
2022-12-14T00:30:21.849Z,0.40
2022-12-14T00:31:24.947Z,0.30
2022-12-14T00:32:28.333Z,0.30
2022-12-14T00:33:30.453Z,0.30
2022-12-14T00:34:33.388Z,0.20
2022-12-14T00:35:36.647Z,0.20
2022-12-14T00:36:39.644Z,0.20
2022-12-14T00:37:41.611Z,0.30
2022-12-14T00:38:44.726Z,0.30
2022-12-14T00:39:46.742Z,0.40
2022-12-14T00:40:50.084Z,0.40
2022-12-14T00:41:52.048Z,0.50
2022-12-14T00:42:55.002Z,0.40
2022-12-14T00:43:56.974Z,0.40
2022-12-14T00:45:00.241Z,0.40
2022-12-14T00:46:02.242Z,0.40
2022-12-14T00:47:05.208Z,0.40
2022-12-14T00:48:07.221Z,0.40
2022-12-14T00:49:10.879Z,0.40
2022-12-14T00:50:12.780Z,0.40
2022-12-14T00:51:17.138Z,0.40
2022-12-14T00:52:19.129Z,0.40
2022-12-14T00:53:22.772Z,0.40
2022-12-14T00:54:24.964Z,0.50
2022-12-14T00:55:27.888Z,0.40
2022-12-14T00:56:30.868Z,0.30
2022-12-14T00:57:32.856Z,0.30
2022-12-14T00:58:36.626Z,0.30
2022-12-14T00:59:38.630Z,0.50
2022-12-14T01:00:41.938Z,0.60
2022-12-14T01:01:44.000Z,0.60
2022-12-14T01:02:47.020Z,0.50
2022-12-14T01:03:49.216Z,0.60
2022-12-14T01:04:52.232Z,0.60
2022-12-14T01:05:54.374Z,0.60
2022-12-14T01:06:58.656Z,0.60
2022-12-14T01:08:00.744Z,0.50
2022-12-14T01:09:03.663Z,0.60
2022-12-14T01:10:06.424Z,0.70
2022-12-14T01:11:10.904Z,0.80
2022-12-14T01:12:12.888Z,0.70
2022-12-14T01:13:15.861Z,0.60
2022-12-14T01:14:19.511Z,0.60
2022-12-14T01:15:22.538Z,0.50
2022-12-14T01:16:24.745Z,0.60
2022-12-14T01:17:27.705Z,0.50
2022-12-14T01:18:29.628Z,0.50
2022-12-14T01:19:32.647Z,0.50
2022-12-14T01:20:34.600Z,0.50
2022-12-14T01:21:37.570Z,0.50
2022-12-14T01:22:40.863Z,0.40
2022-12-14T01:23:44.999Z,0.40
2022-12-14T01:24:47.475Z,0.40
2022-12-14T01:25:50.418Z,0.40
2022-12-14T01:26:52.376Z,0.30
2022-12-14T01:27:55.279Z,0.30
2022-12-14T01:28:59.014Z,0.30
2022-12-14T01:30:02.035Z,0.40
2022-12-14T01:31:08.953Z,0.40
2022-12-14T01:32:11.900Z,0.50
2022-12-14T01:33:13.864Z,0.50
2022-12-14T01:34:17.332Z,0.40
2022-12-14T01:35:19.320Z,0.40
2022-12-14T01:36:23.961Z,0.50
2022-12-14T01:37:26.916Z,0.50
2022-12-14T01:38:30.245Z,0.40
2022-12-14T01:39:33.353Z,0.30
2022-12-14T01:40:35.341Z,0.40
2022-12-14T01:41:40.371Z,0.50
2022-12-14T01:42:42.312Z,0.50
2022-12-14T01:43:50.795Z,0.50
2022-12-14T01:44:56.067Z,0.60
2022-12-14T01:45:59.710Z,0.60
2022-12-14T01:47:12.162Z,0.60
2022-12-14T01:48:15.807Z,0.50
2022-12-14T01:49:23.351Z,0.50
2022-12-14T01:50:31.129Z,0.50
2022-12-14T01:51:34.832Z,0.50
2022-12-14T01:52:42.015Z,0.40
2022-12-14T01:53:45.996Z,0.50
2022-12-14T01:54:55.341Z,0.60
2022-12-14T01:55:57.482Z,0.60
2022-12-14T01:57:00.812Z,0.60
2022-12-14T01:58:07.234Z,0.60
2022-12-14T01:59:15.894Z,0.60
2022-12-14T02:00:18.181Z,0.60
2022-12-14T02:01:21.280Z,0.60
2022-12-14T02:02:24.541Z,0.60
2022-12-14T02:03:31.673Z,0.50
2022-12-14T02:04:36.325Z,0.60
2022-12-14T02:05:44.256Z,0.70
2022-12-14T02:06:47.619Z,0.70
2022-12-14T02:07:53.715Z,0.60
2022-12-14T02:08:57.791Z,0.60
2022-12-14T02:10:04.478Z,0.60
2022-12-14T02:11:06.522Z,0.50
2022-12-14T02:12:12.262Z,0.60
2022-12-14T02:13:19.304Z,0.60
2022-12-14T02:14:21.636Z,0.50
2022-12-14T02:15:25.580Z,0.50
2022-12-14T02:16:27.906Z,0.40
2022-12-14T02:17:30.882Z,0.40
2022-12-14T02:18:34.569Z,0.50
2022-12-14T02:19:37.392Z,0.60
2022-12-14T02:20:45.612Z,0.80
2022-12-14T02:22:06.685Z,0.80
2022-12-14T02:23:44.408Z,0.70
2022-12-14T02:25:27.052Z,0.70
2022-12-14T02:27:01.527Z,0.70
2022-12-14T02:28:17.706Z,0.70
2022-12-14T02:29:49.548Z,0.70
2022-12-14T02:30:56.354Z,0.60
2022-12-14T02:32:11.552Z,0.60
2022-12-14T02:33:36.417Z,0.60
2022-12-14T02:34:52.309Z,0.60
2022-12-14T02:36:00.519Z,0.80
2022-12-14T02:37:07.578Z,0.70
2022-12-14T02:38:23.179Z,0.70
2022-12-14T02:39:33.714Z,0.70
2022-12-14T02:40:44.504Z,0.60
2022-12-14T02:42:00.391Z,0.60
2022-12-14T02:43:11.840Z,0.60
2022-12-14T02:44:25.734Z,0.60
2022-12-14T02:45:36.904Z,0.60
2022-12-14T02:46:50.035Z,0.70
2022-12-14T02:47:57.541Z,0.60
2022-12-14T02:49:06.285Z,0.60
2022-12-14T02:50:12.283Z,0.60
2022-12-14T02:51:24.644Z,0.60
2022-12-14T02:52:37.276Z,0.80
2022-12-14T02:53:46.372Z,0.60
2022-12-14T02:54:55.129Z,0.70
2022-12-14T02:56:03.470Z,0.50
2022-12-14T02:57:13.450Z,0.50
2022-12-14T02:58:21.869Z,0.50
2022-12-14T02:59:24.821Z,0.50
2022-12-14T03:00:32.262Z,0.40
2022-12-14T03:01:36.828Z,0.50
2022-12-14T03:02:43.014Z,0.50
2022-12-14T03:03:45.364Z,0.50
2022-12-14T03:04:48.849Z,0.60
2022-12-14T03:05:59.448Z,0.50
2022-12-14T03:07:22.106Z,0.50
2022-12-14T03:08:26.611Z,0.60
2022-12-14T03:09:31.260Z,0.60
2022-12-14T03:10:39.628Z,0.70
2022-12-14T03:11:49.587Z,0.70
2022-12-14T03:12:56.853Z,0.70
2022-12-14T03:14:04.395Z,0.60
2022-12-14T03:15:08.870Z,0.70
2022-12-14T03:16:17.189Z,0.70
2022-12-14T03:17:22.162Z,0.60
2022-12-14T03:18:26.898Z,0.60
2022-12-14T03:19:32.521Z,0.70
2022-12-14T03:20:38.155Z,0.80
2022-12-14T03:21:44.279Z,0.80
2022-12-14T03:22:53.313Z,0.80
2022-12-14T03:23:56.578Z,0.70
2022-12-14T03:25:03.857Z,0.70
2022-12-14T03:26:12.377Z,0.50
2022-12-14T03:27:21.296Z,0.60
2022-12-14T03:28:31.814Z,0.50
2022-12-14T03:29:38.354Z,0.60
2022-12-14T03:30:59.943Z,0.60
2022-12-14T03:32:08.509Z,0.60
2022-12-14T03:33:16.148Z,0.50
2022-12-14T03:34:23.208Z,0.50
2022-12-14T03:35:30.720Z,0.50
2022-12-14T03:36:37.428Z,0.50
2022-12-14T03:37:51.438Z,0.50
2022-12-14T03:39:00.117Z,0.60
2022-12-14T03:40:02.215Z,0.70
2022-12-14T03:41:14.808Z,0.70
2022-12-14T03:42:22.735Z,0.70
2022-12-14T03:43:36.099Z,0.70
2022-12-14T03:44:49.296Z,0.70
2022-12-14T03:46:03.112Z,0.70
2022-12-14T03:47:18.061Z,0.70
2022-12-14T03:48:31.735Z,0.60
2022-12-14T03:49:45.939Z,0.70
2022-12-14T03:51:01.530Z,0.70
2022-12-14T03:52:08.800Z,0.80
2022-12-14T03:53:16.599Z,0.80
2022-12-14T03:54:25.808Z,0.80
2022-12-14T03:55:32.673Z,0.80
2022-12-14T03:56:42.300Z,0.90
2022-12-14T03:57:57.725Z,1.00
2022-12-14T03:59:06.967Z,0.90
2022-12-14T04:00:13.372Z,0.90
2022-12-14T04:01:20.329Z,0.90
2022-12-14T04:02:29.028Z,0.90
2022-12-14T04:03:42.619Z,0.90
2022-12-14T04:04:52.064Z,0.90
2022-12-14T04:06:00.145Z,0.90
2022-12-14T04:07:09.913Z,0.90
2022-12-14T04:08:18.112Z,0.90
2022-12-14T04:09:33.403Z,1.00
2022-12-14T04:10:59.525Z,1.00
2022-12-14T04:12:26.631Z,1.10
2022-12-14T04:13:52.264Z,1.00
2022-12-14T04:15:17.536Z,1.00
2022-12-14T04:16:43.113Z,0.90
2022-12-14T04:18:07.652Z,0.90
2022-12-14T04:19:17.623Z,1.00
2022-12-14T04:20:23.745Z,1.00
2022-12-14T04:21:35.614Z,0.90
2022-12-14T04:22:43.716Z,1.00
2022-12-14T04:24:08.749Z,-0.10
2022-12-14T04:25:33.906Z,0.90
2022-12-14T04:26:43.700Z,1.00
2022-12-14T04:27:50.788Z,0.90
2022-12-14T04:29:16.324Z,0.90
2022-12-14T04:30:19.675Z,1.00
2022-12-14T04:31:25.619Z,0.90
2022-12-14T04:32:34.110Z,0.90
2022-12-14T04:33:48.118Z,0.90
2022-12-14T04:34:55.442Z,0.90
2022-12-14T04:36:01.581Z,0.90
2022-12-14T04:37:09.907Z,1.00
2022-12-14T04:38:15.659Z,1.10
2022-12-14T04:39:23.758Z,1.00
2022-12-14T04:40:31.573Z,1.00
2022-12-14T04:41:37.476Z,1.00
2022-12-14T04:42:47.689Z,1.00
2022-12-14T04:43:53.532Z,1.10
2022-12-14T04:45:01.508Z,1.00
2022-12-14T04:46:08.859Z,1.00
2022-12-14T04:47:13.627Z,1.10
2022-12-14T04:48:23.331Z,1.20
2022-12-14T04:49:32.299Z,1.30
2022-12-14T04:50:38.661Z,1.20
2022-12-14T04:51:48.281Z,1.20
2022-12-14T04:52:55.313Z,1.20
2022-12-14T04:54:05.452Z,1.10
2022-12-14T04:55:13.255Z,1.00
2022-12-14T04:56:19.544Z,1.10
2022-12-14T04:57:29.608Z,1.00
2022-12-14T04:58:33.332Z,0.90
2022-12-14T04:59:36.374Z,0.90
2022-12-14T05:00:49.335Z,0.90
2022-12-14T05:02:04.410Z,1.00
2022-12-14T05:03:19.955Z,1.00
2022-12-14T05:04:33.865Z,1.00
2022-12-14T05:05:42.648Z,1.10
2022-12-14T05:06:54.916Z,1.10
2022-12-14T05:08:02.281Z,1.30
2022-12-14T05:09:15.529Z,1.10
2022-12-14T05:10:21.862Z,1.20
2022-12-14T05:11:52.636Z,1.20
2022-12-14T05:13:00.886Z,1.10
2022-12-14T05:14:06.887Z,1.10
2022-12-14T05:15:14.273Z,1.10
2022-12-14T05:16:17.440Z,1.10
2022-12-14T05:17:20.674Z,1.00
2022-12-14T05:18:23.276Z,1.10
2022-12-14T05:19:27.298Z,1.10
2022-12-14T05:20:31.953Z,1.10
2022-12-14T05:21:48.735Z,1.10
2022-12-14T05:22:51.979Z,1.20
2022-12-14T05:23:54.001Z,1.10
2022-12-14T05:24:56.956Z,1.10
2022-12-14T05:25:58.859Z,1.20
2022-12-14T05:27:01.762Z,1.20
2022-12-14T05:28:04.905Z,1.20
2022-12-14T05:29:06.885Z,1.20
2022-12-14T05:30:11.133Z,1.30
2022-12-14T05:31:13.188Z,1.30
2022-12-14T05:32:16.112Z,1.20
2022-12-14T05:33:19.900Z,1.20
2022-12-14T05:34:22.896Z,1.20
2022-12-14T05:35:25.948Z,1.20
2022-12-14T05:36:29.534Z,1.20
2022-12-14T05:37:32.470Z,1.20
2022-12-14T05:38:34.373Z,1.30
2022-12-14T05:39:37.334Z,1.30
2022-12-14T05:40:39.918Z,1.30
2022-12-14T05:41:42.913Z,1.30
2022-12-14T05:42:47.701Z,1.30
2022-12-14T05:43:53.925Z,1.30
2022-12-14T05:44:56.828Z,1.30
2022-12-14T05:45:59.175Z,1.40
2022-12-14T05:47:02.085Z,1.30
2022-12-14T05:48:04.560Z,1.30
2022-12-14T05:49:07.574Z,1.30
2022-12-14T05:50:09.848Z,1.30
2022-12-14T05:51:14.361Z,1.30
2022-12-14T05:52:17.922Z,1.30
2022-12-14T05:53:21.064Z,1.30
2022-12-14T05:54:23.070Z,1.30
2022-12-14T05:55:26.051Z,1.30
2022-12-14T05:56:28.005Z,1.30
2022-12-14T05:57:32.056Z,1.30
2022-12-14T05:58:34.777Z,1.40
2022-12-14T05:59:37.716Z,1.40
2022-12-14T06:00:40.074Z,1.40
2022-12-14T06:01:43.174Z,1.50
2022-12-14T06:02:45.195Z,1.40
2022-12-14T06:03:48.250Z,1.50
2022-12-14T06:04:50.238Z,1.50
2022-12-14T06:05:53.221Z,1.50
2022-12-14T06:06:56.144Z,1.60
2022-12-14T06:07:59.599Z,1.50
2022-12-14T06:09:02.495Z,1.50
2022-12-14T06:10:05.758Z,1.60
2022-12-14T06:11:09.641Z,1.50
2022-12-14T06:12:12.628Z,1.50
2022-12-14T06:13:14.587Z,1.40
2022-12-14T06:14:18.154Z,1.40
2022-12-14T06:15:20.224Z,1.50
2022-12-14T06:16:25.389Z,1.50
2022-12-14T06:17:28.359Z,1.50
2022-12-14T06:18:30.298Z,1.50
2022-12-14T06:19:33.399Z,1.40
2022-12-14T06:20:35.668Z,1.50
2022-12-14T06:21:40.064Z,1.60
2022-12-14T06:22:47.358Z,1.50
2022-12-14T06:23:51.936Z,1.50
2022-12-14T06:24:55.210Z,1.50
2022-12-14T06:25:57.251Z,1.50
2022-12-14T06:27:00.281Z,1.50
2022-12-14T06:28:02.195Z,2.30
2022-12-14T06:29:05.552Z,1.50
2022-12-14T06:30:10.187Z,1.50
2022-12-14T06:31:17.636Z,1.50
2022-12-14T06:32:20.801Z,1.50
2022-12-14T06:33:22.701Z,1.60
2022-12-14T06:34:28.644Z,1.50
2022-12-14T06:35:30.838Z,1.50
2022-12-14T06:36:35.650Z,1.50
2022-12-14T06:37:37.548Z,1.50
2022-12-14T06:38:40.437Z,1.50
2022-12-14T06:39:53.933Z,1.50
2022-12-14T06:40:56.349Z,1.50
2022-12-14T06:41:59.240Z,1.50
2022-12-14T06:43:01.148Z,1.50
2022-12-14T06:44:07.117Z,1.50
2022-12-14T06:45:10.773Z,1.50
2022-12-14T06:46:15.728Z,1.50
2022-12-14T06:47:18.932Z,1.50
2022-12-14T06:48:21.009Z,1.50
2022-12-14T06:49:23.958Z,1.50
2022-12-14T06:50:27.560Z,1.40
2022-12-14T06:51:30.451Z,1.40
2022-12-14T06:52:32.899Z,1.40
2022-12-14T06:53:36.800Z,1.40
2022-12-14T06:54:39.844Z,1.50
2022-12-14T06:55:43.164Z,1.40
2022-12-14T06:56:48.049Z,1.50
2022-12-14T06:57:52.424Z,1.50
2022-12-14T06:58:55.048Z,1.60
2022-12-14T06:59:57.974Z,1.40
2022-12-14T07:01:02.302Z,1.50
2022-12-14T07:02:05.416Z,1.50
2022-12-14T07:03:10.727Z,1.50
2022-12-14T07:04:12.756Z,1.50
2022-12-14T07:05:16.272Z,1.50
2022-12-14T07:06:19.272Z,1.50
2022-12-14T07:07:22.215Z,1.50
2022-12-14T07:08:25.672Z,1.50
2022-12-14T07:09:28.670Z,1.50
2022-12-14T07:10:30.662Z,1.50
2022-12-14T07:11:35.125Z,1.50
2022-12-14T07:12:37.076Z,1.50
2022-12-14T07:13:40.465Z,1.60
2022-12-14T07:14:43.383Z,1.60
2022-12-14T07:15:51.386Z,1.50
2022-12-14T07:16:54.327Z,1.60
2022-12-14T07:17:57.230Z,1.50
2022-12-14T07:18:59.195Z,1.50
2022-12-14T07:20:02.122Z,1.60
2022-12-14T07:21:06.837Z,1.60
2022-12-14T07:22:09.782Z,1.60
2022-12-14T07:23:11.794Z,1.60
2022-12-14T07:24:14.754Z,1.50
2022-12-14T07:25:16.786Z,1.50
2022-12-14T07:26:25.355Z,1.60
2022-12-14T07:27:30.208Z,1.60
2022-12-14T07:28:32.969Z,1.60
2022-12-14T07:29:35.936Z,1.60
2022-12-14T07:30:37.848Z,1.70
2022-12-14T07:31:40.870Z,1.70
2022-12-14T07:32:42.855Z,1.60
2022-12-14T07:33:45.964Z,1.70
2022-12-14T07:34:49.128Z,1.70
2022-12-14T07:35:51.312Z,1.60
2022-12-14T07:36:54.874Z,1.60
2022-12-14T07:37:56.836Z,1.60
2022-12-14T07:38:59.941Z,1.60
2022-12-14T07:40:04.324Z,1.60
2022-12-14T07:41:08.198Z,1.70
2022-12-14T07:42:11.184Z,1.60
2022-12-14T07:43:15.448Z,1.60
2022-12-14T07:44:18.464Z,1.60
2022-12-14T07:45:20.456Z,1.50
2022-12-14T07:46:25.141Z,1.50
2022-12-14T07:47:30.587Z,1.50
2022-12-14T07:48:32.847Z,1.60
2022-12-14T07:49:36.046Z,1.60
2022-12-14T07:50:38.012Z,1.70
2022-12-14T07:51:44.126Z,1.70
2022-12-14T07:52:47.045Z,1.60
2022-12-14T07:53:50.062Z,1.60
2022-12-14T07:54:56.017Z,1.70
2022-12-14T07:56:02.859Z,1.70
2022-12-14T07:57:05.869Z,1.60
2022-12-14T07:58:07.809Z,1.60
2022-12-14T07:59:15.975Z,1.70
2022-12-14T08:00:18.538Z,1.70
2022-12-14T08:01:24.375Z,1.80
2022-12-14T08:02:26.683Z,1.80
2022-12-14T08:03:30.218Z,1.80
2022-12-14T08:04:35.677Z,1.80
2022-12-14T08:05:39.797Z,1.80
2022-12-14T08:06:43.011Z,1.70
2022-12-14T08:07:45.944Z,1.80
2022-12-14T08:08:49.303Z,1.80
2022-12-14T08:09:52.332Z,1.60
2022-12-14T08:10:54.357Z,1.60
2022-12-14T08:11:57.523Z,1.70
2022-12-14T08:12:59.580Z,1.70
2022-12-14T08:14:04.404Z,1.80
2022-12-14T08:15:10.435Z,1.70
2022-12-14T08:16:14.335Z,1.70
2022-12-14T08:17:17.368Z,1.60
2022-12-14T08:18:21.107Z,1.70
2022-12-14T08:19:24.182Z,1.70
2022-12-14T08:20:27.121Z,1.70
2022-12-14T08:21:34.865Z,1.70
2022-12-14T08:22:37.781Z,1.80
2022-12-14T08:23:41.324Z,1.70
2022-12-14T08:24:44.265Z,1.60
2022-12-14T08:25:53.485Z,1.60
2022-12-14T08:26:56.542Z,1.70
2022-12-14T08:27:58.746Z,1.60
2022-12-14T08:29:02.082Z,1.60
2022-12-14T08:30:05.833Z,1.70
2022-12-14T08:31:11.919Z,1.70
2022-12-14T08:32:13.909Z,1.80
2022-12-14T08:33:16.953Z,1.80
2022-12-14T08:34:22.729Z,1.90
2022-12-14T08:35:26.037Z,1.90
2022-12-14T08:36:31.104Z,1.80
2022-12-14T08:37:34.137Z,1.80
2022-12-14T08:38:37.081Z,1.90
2022-12-14T08:39:40.182Z,1.90
2022-12-14T08:40:42.284Z,1.80
2022-12-14T08:41:46.389Z,1.80
2022-12-14T08:42:50.090Z,1.80
2022-12-14T08:43:54.517Z,1.80
2022-12-14T08:44:57.573Z,1.90
2022-12-14T08:45:59.700Z,1.90
2022-12-14T08:47:04.312Z,1.90
2022-12-14T08:48:06.924Z,1.80
2022-12-14T08:49:09.842Z,1.80
2022-12-14T08:50:12.977Z,1.90
2022-12-14T08:51:15.010Z,1.90
2022-12-14T08:52:18.379Z,1.90
2022-12-14T08:53:21.925Z,1.90
2022-12-14T08:54:24.974Z,1.90
2022-12-14T08:55:31.316Z,1.90
2022-12-14T08:56:36.862Z,2.00
2022-12-14T08:57:39.024Z,2.00
2022-12-14T08:58:42.310Z,2.00
2022-12-14T09:00:01.180Z,2.00
2022-12-14T09:01:06.295Z,1.90
2022-12-14T09:02:11.736Z,2.00
2022-12-14T09:03:13.823Z,2.10
2022-12-14T09:04:16.904Z,1.90
2022-12-14T09:05:19.846Z,2.00
2022-12-14T09:06:27.027Z,2.00
2022-12-14T09:07:30.420Z,2.00
2022-12-14T09:08:34.081Z,2.10
2022-12-14T09:09:37.440Z,2.00
2022-12-14T09:10:39.424Z,1.90
2022-12-14T09:11:42.532Z,1.90
2022-12-14T09:12:45.621Z,1.90
2022-12-14T09:13:49.224Z,1.80
2022-12-14T09:14:52.018Z,1.80
2022-12-14T09:15:59.988Z,1.80
2022-12-14T09:17:03.598Z,2.00
2022-12-14T09:18:06.933Z,1.90
2022-12-14T09:19:09.859Z,1.90
2022-12-14T09:20:13.724Z,1.80
2022-12-14T09:21:17.929Z,1.80
2022-12-14T09:22:21.780Z,1.90
2022-12-14T09:23:25.557Z,2.00
2022-12-14T09:24:29.037Z,1.90
2022-12-14T09:25:30.995Z,2.00
2022-12-14T09:26:34.339Z,2.00
2022-12-14T09:27:36.666Z,2.00
2022-12-14T09:28:41.575Z,1.90
2022-12-14T09:29:44.765Z,2.00
2022-12-14T09:30:46.667Z,2.00
2022-12-14T09:31:49.767Z,2.00
2022-12-14T09:32:52.780Z,2.10
2022-12-14T09:33:57.962Z,2.10
2022-12-14T09:35:00.958Z,2.10
2022-12-14T09:36:04.576Z,2.10
2022-12-14T09:37:07.775Z,2.20
2022-12-14T09:38:10.668Z,2.00
2022-12-14T09:39:15.070Z,2.00
2022-12-14T09:40:18.253Z,2.00
2022-12-14T09:41:32.854Z,2.10
2022-12-14T09:42:54.065Z,2.10
2022-12-14T09:44:03.076Z,2.00
2022-12-14T09:45:12.691Z,2.00
2022-12-14T09:46:27.123Z,2.00
2022-12-14T09:47:35.661Z,2.00
2022-12-14T09:48:39.182Z,2.10
2022-12-14T09:49:48.395Z,2.10
2022-12-14T09:50:54.225Z,2.10
2022-12-14T09:52:00.689Z,2.00
2022-12-14T09:53:08.061Z,1.90
2022-12-14T09:54:16.129Z,2.00
2022-12-14T09:55:22.331Z,2.00
2022-12-14T09:56:25.266Z,2.10
2022-12-14T09:57:33.722Z,2.10
2022-12-14T09:58:37.264Z,2.20
2022-12-14T09:59:40.715Z,2.20
2022-12-14T10:00:53.295Z,2.20
2022-12-14T10:03:50.930Z,2.20
2022-12-14T10:05:08.457Z,2.00
2022-12-14T10:06:31.840Z,2.00
2022-12-14T10:07:42.551Z,2.00
2022-12-14T10:08:54.825Z,1.90
2022-12-14T10:10:04.783Z,2.00
2022-12-14T10:11:17.312Z,2.10
2022-12-14T10:12:34.390Z,2.10
2022-12-14T10:13:49.615Z,2.10
2022-12-14T10:15:04.986Z,2.20
2022-12-14T10:16:16.471Z,2.10
2022-12-14T10:17:29.948Z,2.10
2022-12-14T10:19:02.583Z,2.20
2022-12-14T10:20:15.443Z,2.20
2022-12-14T10:21:22.969Z,3.30
2022-12-14T10:22:30.676Z,2.20
2022-12-14T10:23:34.002Z,2.30
2022-12-14T10:24:42.300Z,2.30
2022-12-14T10:25:46.774Z,2.20
2022-12-14T10:26:52.748Z,2.30
2022-12-14T10:28:10.920Z,2.20
2022-12-14T10:29:20.108Z,2.20
2022-12-14T10:30:23.141Z,2.30
2022-12-14T10:31:33.677Z,2.30
2022-12-14T10:32:38.641Z,2.20
2022-12-14T10:33:45.913Z,2.30
2022-12-14T10:34:49.495Z,2.30
2022-12-14T10:35:56.221Z,2.40
2022-12-14T10:37:08.936Z,2.40
2022-12-14T10:38:19.508Z,2.40
2022-12-14T10:39:27.799Z,2.30
2022-12-14T10:40:34.593Z,2.30
2022-12-14T10:41:49.423Z,2.30
2022-12-14T10:43:03.466Z,2.30
2022-12-14T10:44:18.050Z,2.30
2022-12-14T10:45:41.051Z,2.30
2022-12-14T10:46:54.340Z,2.30
2022-12-14T10:48:10.941Z,2.30
2022-12-14T10:49:20.292Z,2.30
2022-12-14T10:50:30.861Z,2.20
2022-12-14T10:51:40.500Z,2.20
2022-12-14T10:52:46.311Z,2.10
2022-12-14T10:53:52.812Z,2.20
2022-12-14T10:54:57.998Z,2.20
2022-12-14T10:56:05.920Z,2.10
2022-12-14T10:57:08.870Z,2.20
2022-12-14T10:58:12.628Z,2.10
2022-12-14T10:59:39.757Z,2.10
2022-12-14T11:00:53.217Z,2.10
2022-12-14T11:02:02.404Z,2.10
2022-12-14T11:03:13.662Z,2.10
2022-12-14T11:04:29.640Z,2.20
2022-12-14T11:05:39.856Z,2.20
2022-12-14T11:06:44.257Z,2.20
2022-12-14T11:07:49.839Z,2.00
2022-12-14T11:08:53.581Z,2.00
2022-12-14T11:10:17.016Z,1.90
2022-12-14T11:11:23.760Z,2.00
2022-12-14T11:12:28.652Z,2.10
2022-12-14T11:13:31.681Z,2.00
2022-12-14T11:14:36.399Z,2.00
2022-12-14T11:15:41.862Z,2.10
2022-12-14T11:16:45.099Z,2.10
2022-12-14T11:17:48.252Z,2.10
2022-12-14T11:18:59.640Z,2.20
2022-12-14T11:20:14.860Z,2.20
2022-12-14T11:21:17.788Z,2.20
2022-12-14T11:22:22.743Z,2.20
2022-12-14T11:23:27.659Z,2.10
2022-12-14T11:24:30.669Z,2.10
2022-12-14T11:25:38.893Z,2.20
2022-12-14T11:26:44.017Z,2.10
2022-12-14T11:27:47.016Z,2.00
2022-12-14T11:28:55.746Z,2.10
2022-12-14T11:29:59.237Z,2.10
2022-12-14T11:31:05.318Z,2.10
2022-12-14T11:32:17.993Z,2.10
2022-12-14T11:33:21.246Z,2.10
2022-12-14T11:34:32.643Z,2.10
2022-12-14T11:35:36.119Z,2.00
2022-12-14T11:36:41.242Z,2.00
2022-12-14T11:37:46.571Z,2.00
2022-12-14T11:38:55.177Z,1.90
2022-12-14T11:40:00.590Z,1.90
2022-12-14T11:41:10.689Z,1.90
2022-12-14T11:42:19.705Z,1.90
2022-12-14T11:43:28.292Z,1.90
2022-12-14T11:44:34.175Z,1.90
2022-12-14T11:45:38.229Z,1.80
2022-12-14T11:46:46.248Z,1.80
2022-12-14T11:48:18.199Z,1.90
2022-12-14T11:49:25.087Z,2.00
2022-12-14T11:50:28.301Z,1.90
2022-12-14T11:51:31.262Z,2.00
2022-12-14T11:52:42.724Z,2.00
2022-12-14T11:54:03.634Z,2.00
2022-12-14T11:55:13.913Z,2.00
2022-12-14T11:56:18.892Z,2.00
2022-12-14T11:57:29.306Z,2.00
2022-12-14T11:58:37.558Z,2.00
2022-12-14T11:59:46.561Z,2.00
2022-12-14T12:00:53.392Z,2.10
2022-12-14T12:01:56.472Z,1.90
2022-12-14T12:03:03.478Z,2.00
2022-12-14T12:04:14.293Z,1.90
2022-12-14T12:05:19.188Z,1.90
2022-12-14T12:06:25.233Z,1.90
2022-12-14T12:07:34.136Z,2.00
2022-12-14T12:08:39.047Z,1.90
2022-12-14T12:09:43.659Z,1.90
2022-12-14T12:10:50.078Z,1.90
2022-12-14T12:11:53.471Z,1.80
2022-12-14T12:12:58.364Z,1.90
2022-12-14T12:14:03.319Z,1.90
2022-12-14T12:15:07.021Z,1.90
2022-12-14T12:16:16.131Z,1.80
2022-12-14T12:17:19.065Z,1.80
2022-12-14T12:18:27.496Z,1.80
2022-12-14T12:19:35.877Z,1.70
2022-12-14T12:20:40.802Z,1.70
2022-12-14T12:21:45.486Z,1.70
2022-12-14T12:22:51.902Z,1.80
2022-12-14T12:24:01.316Z,1.80
2022-12-14T12:25:28.601Z,1.90
2022-12-14T12:26:35.453Z,1.80
2022-12-14T12:27:38.278Z,1.60
2022-12-14T12:28:46.340Z,1.60
2022-12-14T12:29:54.024Z,1.70
2022-12-14T12:31:06.150Z,1.70
2022-12-14T12:32:18.153Z,1.70
2022-12-14T12:33:36.417Z,1.70
2022-12-14T12:34:44.997Z,1.80
2022-12-14T12:35:51.966Z,1.70
2022-12-14T12:37:25.210Z,1.70
2022-12-14T12:38:27.179Z,1.60
2022-12-14T12:39:31.829Z,1.60
2022-12-14T12:40:38.777Z,1.60
2022-12-14T12:41:52.185Z,1.60
2022-12-14T12:43:00.376Z,1.60
2022-12-14T12:44:18.378Z,1.50
2022-12-14T12:45:25.801Z,1.50
2022-12-14T12:46:31.700Z,1.60
2022-12-14T12:47:47.289Z,1.60
2022-12-14T12:48:54.932Z,1.60
2022-12-14T12:50:01.892Z,1.60
2022-12-14T12:51:11.122Z,1.60
2022-12-14T12:52:21.821Z,1.60
2022-12-14T12:53:30.272Z,1.70
2022-12-14T12:54:36.621Z,1.70
2022-12-14T12:55:44.704Z,1.70
2022-12-14T12:56:50.937Z,1.70
2022-12-14T12:57:57.656Z,1.80
2022-12-14T12:59:02.314Z,1.80
2022-12-14T13:00:07.103Z,1.70
2022-12-14T13:01:22.601Z,1.80
2022-12-14T13:02:32.377Z,1.80
2022-12-14T13:03:39.403Z,1.90
2022-12-14T13:04:52.280Z,1.80
2022-12-14T13:05:58.781Z,1.70
2022-12-14T13:07:05.100Z,1.80
2022-12-14T13:08:13.989Z,1.80
2022-12-14T13:09:23.644Z,1.70
2022-12-14T13:10:30.233Z,1.70
2022-12-14T13:11:39.273Z,1.70
2022-12-14T13:12:47.982Z,1.70
2022-12-14T13:13:53.608Z,1.70
2022-12-14T13:14:59.380Z,1.80
2022-12-14T13:16:12.758Z,1.80
2022-12-14T13:17:28.195Z,1.80
2022-12-14T13:18:57.894Z,1.80
2022-12-14T13:20:00.725Z,1.80
2022-12-14T13:21:15.808Z,1.70
2022-12-14T13:22:25.743Z,1.80
2022-12-14T13:23:44.793Z,1.80
2022-12-14T13:24:57.047Z,1.80
2022-12-14T13:26:55.575Z,1.70
2022-12-14T13:28:15.200Z,1.70
2022-12-14T13:29:32.187Z,1.70
2022-12-14T13:30:54.987Z,1.80
2022-12-14T13:32:06.586Z,1.80
2022-12-14T13:33:31.401Z,1.70
2022-12-14T13:34:47.289Z,1.60
2022-12-14T13:36:03.895Z,1.70
2022-12-14T13:37:43.599Z,1.60
2022-12-14T13:39:07.650Z,1.70
2022-12-14T13:40:46.220Z,1.70
2022-12-14T13:41:55.173Z,1.80
2022-12-14T13:43:11.038Z,1.90
2022-12-14T13:44:44.005Z,1.90
2022-12-14T13:45:49.871Z,1.80
2022-12-14T13:47:00.288Z,1.90
2022-12-14T13:48:09.016Z,1.70
2022-12-14T13:49:22.922Z,1.80
2022-12-14T13:50:42.214Z,1.70
2022-12-14T13:51:50.884Z,1.80
2022-12-14T13:53:01.099Z,1.80
2022-12-14T13:54:07.357Z,1.80
2022-12-14T13:55:27.237Z,1.80
2022-12-14T13:56:33.635Z,1.90
2022-12-14T13:57:36.902Z,1.90
2022-12-14T13:58:41.853Z,1.80
2022-12-14T13:59:50.500Z,1.90
2022-12-14T14:00:58.874Z,1.80
2022-12-14T14:02:02.913Z,1.90
2022-12-14T14:03:04.939Z,1.90
2022-12-14T14:04:22.101Z,1.90
2022-12-14T14:05:44.855Z,1.90
2022-12-14T14:06:48.855Z,1.80
2022-12-14T14:07:53.648Z,1.80
2022-12-14T14:08:56.633Z,1.80
2022-12-14T14:10:03.272Z,1.90
2022-12-14T14:11:39.996Z,1.90
2022-12-14T14:12:45.420Z,1.90
2022-12-14T14:14:08.769Z,1.90
2022-12-14T14:15:35.353Z,1.90
2022-12-14T14:16:45.658Z,1.80
2022-12-14T14:17:50.954Z,1.90
2022-12-14T14:18:59.245Z,2.00
2022-12-14T14:20:05.298Z,2.00
2022-12-14T14:21:32.332Z,1.90
2022-12-14T14:22:35.414Z,1.90
2022-12-14T14:23:37.898Z,1.70
2022-12-14T14:24:59.315Z,1.60
2022-12-14T14:26:26.024Z,1.60
2022-12-14T14:27:36.273Z,1.70
2022-12-14T14:28:38.671Z,1.60
2022-12-14T14:29:47.344Z,1.80
2022-12-14T14:30:57.478Z,1.90
2022-12-14T14:32:02.583Z,1.80
2022-12-14T14:33:48.378Z,1.90
2022-12-14T14:34:52.582Z,1.80
2022-12-14T14:36:08.927Z,1.80
2022-12-14T14:37:28.275Z,1.80
2022-12-14T14:38:32.917Z,1.90
2022-12-14T14:39:56.670Z,1.90
2022-12-14T14:41:19.482Z,1.80
2022-12-14T14:42:25.312Z,1.80
2022-12-14T14:43:31.505Z,1.70
2022-12-14T14:44:42.632Z,3.00
2022-12-14T14:45:53.681Z,1.90
2022-12-14T14:46:58.101Z,1.90
2022-12-14T14:48:03.412Z,1.90
2022-12-14T14:49:08.032Z,1.90
2022-12-14T14:50:24.190Z,1.80
2022-12-14T14:51:29.434Z,1.90
2022-12-14T14:53:00.900Z,1.90
2022-12-14T14:56:01.176Z,2.00
2022-12-14T14:57:04.232Z,2.10
2022-12-14T14:58:22.471Z,2.20
2022-12-14T14:59:50.929Z,2.10
2022-12-14T15:01:02.835Z,2.00